Time;durP1;ratioP1;P1;durP2;ratioP2;P2;SDS_P1;SDS_P2;PMS_P1;PMS_P2;Temp;Humidity;BMP_temperature;BMP_pressure;BME280_temperature;BME280_humidity;BME280_pressure;Samples;Min_cycle;Max_cycle;Signal;HPM_P1;HPM_P2
2023/01/05 00:02:37;;;;;;;1.35;1.00;;;15.40;94.10;;;;;;5054660;28;20796;-71
2023/01/05 00:05:25;;;;;;;0.93;0.93;;;15.40;94.40;;;;;;5054584;28;20197;-71
2023/01/05 00:08:13;;;;;;;0.68;0.68;;;15.40;94.20;;;;;;5053264;28;20260;-72
2023/01/05 00:23:33;;;;;;;1.30;0.80;;;15.60;94.50;;;;;;5053662;28;20775;-69
2023/01/05 00:26:21;;;;;;;0.88;0.60;;;15.20;94.40;;;;;;5054167;28;20285;-70
2023/01/05 00:29:09;;;;;;;0.75;0.75;;;15.30;94.70;;;;;;5053018;28;20286;-70
2023/01/05 00:31:57;;;;;;;1.23;0.80;;;15.40;94.60;;;;;;5054011;28;20220;-72
2023/01/05 00:34:45;;;;;;;0.90;0.70;;;15.30;94.50;;;;;;5053547;28;20204;-67
2023/01/05 00:37:36;;;;;;;0.60;0.60;;;15.30;94.50;;;;;;5052828;28;20250;-70
2023/01/05 00:40:25;;;;;;;1.63;0.90;;;15.50;94.50;;;;;;5053313;28;20283;-71
2023/01/05 00:43:13;;;;;;;0.98;0.70;;;15.40;94.60;;;;;;5052866;28;20276;-71
2023/01/05 00:46:01;;;;;;;0.80;0.70;;;15.40;94.70;;;;;;5052780;28;20276;-71
2023/01/05 00:48:49;;;;;;;1.13;0.90;;;15.30;94.50;;;;;;5053820;28;20208;-71
2023/01/05 00:51:37;;;;;;;1.58;0.80;;;15.30;94.50;;;;;;5052423;28;20309;-71
2023/01/05 00:54:27;;;;;;;0.90;0.60;;;15.30;94.50;;;;;;5053685;28;20202;-71
2023/01/05 00:57:15;;;;;;;0.60;0.60;;;15.30;94.20;;;;;;5053108;28;20197;-71
2023/01/05 01:00:04;;;;;;;1.08;0.65;;;15.20;99.90;;;;;;5052046;28;20216;-70
2023/01/05 01:02:52;;;;;;;0.80;0.73;;;15.30;94.40;;;;;;5051722;28;20262;-70
2023/01/05 01:05:40;;;;;;;1.15;0.60;;;15.50;94.60;;;;;;5052589;28;20669;-70
2023/01/05 01:08:28;;;;;;;0.65;0.60;;;15.40;94.50;;;;;;5053362;28;20283;-70
2023/01/05 01:11:18;;;;;;;0.82;0.70;;;15.30;94.50;;;;;;5052220;28;20249;-70
2023/01/05 01:14:07;;;;;;;0.80;0.70;;;15.40;94.50;;;;;;5052302;28;20559;-68
2023/01/05 01:16:55;;;;;;;1.10;0.77;;;15.40;94.50;;;;;;5053163;28;20335;-71
2023/01/05 01:19:45;;;;;;;1.17;0.80;;;15.50;94.60;;;;;;5051642;28;20705;-69
2023/01/05 01:22:33;;;;;;;1.23;0.60;;;15.40;94.50;;;;;;5053098;28;20205;-71
2023/01/05 01:25:21;;;;;;;0.82;0.80;;;15.30;94.50;;;;;;5051125;28;20229;-71
2023/01/05 01:28:10;;;;;;;1.50;0.77;;;15.30;94.50;;;;;;5053035;28;20197;-69
2023/01/05 01:30:58;;;;;;;0.95;0.60;;;15.70;94.70;;;;;;5051543;28;20317;-70
2023/01/05 01:33:47;;;;;;;0.60;0.60;;;15.30;94.60;;;;;;5051176;28;20294;-71
2023/01/05 01:36:35;;;;;;;2.38;0.90;;;15.30;94.50;;;;;;5051826;28;20665;-71
2023/01/05 01:39:23;;;;;;;1.13;1.05;;;15.40;94.60;;;;;;5051925;28;20277;-70
2023/01/05 01:42:14;;;;;;;1.08;0.93;;;15.30;94.60;;;;;;5050832;28;20307;-69
2023/01/05 01:45:15;;;;;;;1.70;0.80;;;15.40;94.60;;;;;;5046310;28;20237;-71
2023/01/05 01:48:03;;;;;;;3.90;1.15;;;15.40;94.60;;;;;;5051366;28;20280;-71
2023/01/05 01:50:53;;;;;;;1.83;0.80;;;15.30;94.60;;;;;;5051152;28;20223;-71
2023/01/05 01:53:45;;;;;;;1.92;0.70;;;15.30;94.60;;;;;;5051363;28;20704;-71
2023/01/05 01:56:37;;;;;;;3.92;0.80;;;15.30;94.60;;;;;;5051273;28;20243;-69
2023/01/05 01:59:27;;;;;;;0.90;0.80;;;15.30;94.60;;;;;;5052253;28;20232;-71
2023/01/05 02:02:16;;;;;;;2.57;0.87;;;15.10;94.50;;;;;;5051414;28;20681;-71
2023/01/05 02:05:09;;;;;;;1.03;0.77;;;15.30;94.70;;;;;;5051235;28;20279;-71
2023/01/05 02:07:57;;;;;;;1.25;0.90;;;15.30;94.60;;;;;;5052371;28;20294;-71
2023/01/05 02:10:58;;;;;;;1.58;0.70;;;15.30;94.70;;;;;;5052108;28;20244;-68
2023/01/05 02:14:06;;;;;;;1.23;0.70;;;15.30;94.60;;;;;;5051167;28;20283;-69
2023/01/05 02:17:06;;;;;;;1.10;0.75;;;15.30;94.60;;;;;;5051623;28;20259;-70
2023/01/05 02:20:28;;;;;;;1.67;0.70;;;15.30;99.90;;;;;;5051527;28;20221;-70
2023/01/05 02:23:38;;;;;;;2.65;1.00;;;15.30;94.60;;;;;;5052212;28;20283;-71
2023/01/05 02:27:03;;;;;;;1.90;0.70;;;15.50;94.80;;;;;;5051244;28;20204;-70
2023/01/05 02:30:27;;;;;;;1.33;0.80;;;15.40;99.90;;;;;;5050610;28;20649;-72
2023/01/05 02:33:25;;;;;;;1.37;0.80;;;15.30;94.60;;;;;;5051050;28;20201;-72
2023/01/05 02:36:20;;;;;;;1.60;0.70;;;15.30;94.60;;;;;;5050876;28;20197;-71
2023/01/05 02:39:17;;;;;;;1.00;0.90;;;15.40;94.70;;;;;;5051874;28;20673;-71
2023/01/05 02:42:10;;;;;;;0.70;0.70;;;15.30;94.70;;;;;;5051922;28;20706;-71
2023/01/05 02:45:01;;;;;;;1.53;0.60;;;15.30;94.70;;;;;;5045786;28;20248;-71
2023/01/05 02:47:49;;;;;;;2.08;0.73;;;15.20;94.70;;;;;;5039458;28;20208;-70
2023/01/05 02:50:42;;;;;;;1.20;0.70;;;15.20;94.70;;;;;;5051850;28;20221;-71
2023/01/05 02:53:35;;;;;;;1.17;0.70;;;15.10;94.60;;;;;;5051973;28;20279;-72
2023/01/05 02:56:27;;;;;;;1.00;0.70;;;15.40;94.70;;;;;;5050729;28;20205;-70
2023/01/05 02:59:22;;;;;;;0.90;0.70;;;15.20;94.60;;;;;;5051644;28;20328;-71
2023/01/05 03:02:13;;;;;;;2.05;0.70;;;15.20;94.60;;;;;;5050544;28;20301;-70
2023/01/05 03:05:06;;;;;;;0.63;0.63;;;15.40;94.70;;;;;;5045322;28;20665;-71
2023/01/05 03:08:05;;;;;;;0.70;0.70;;;15.40;94.70;;;;;;5050743;28;20276;-71
2023/01/05 03:14:12;;;;;;;0.80;0.63;;;15.20;94.70;;;;;;5049967;28;20205;-71
2023/01/05 03:17:01;;;;;;;3.85;0.80;;;15.20;94.70;;;;;;5050388;28;20319;-69
2023/01/05 03:19:52;;;;;;;0.70;0.70;;;15.20;99.90;;;;;;5051362;28;20281;-69
2023/01/05 03:35:30;;;;;;;1.10;0.70;;;15.30;94.70;;;;;;5053799;28;20216;-68
2023/01/05 03:38:25;;;;;;;4.50;1.10;;;15.30;94.70;;;;;;5055358;28;20727;-70
2023/01/05 03:41:16;;;;;;;1.90;0.90;;;15.30;94.70;;;;;;5054461;28;20313;-69
2023/01/05 03:44:04;;;;;;;1.00;0.70;;;15.30;94.80;;;;;;5054253;28;20211;-71
2023/01/05 03:46:52;;;;;;;1.75;0.73;;;15.30;94.60;;;;;;5055155;28;20383;-70
2023/01/05 03:49:41;;;;;;;1.15;0.95;;;15.30;94.70;;;;;;5053466;28;20205;-72
2023/01/05 03:52:29;;;;;;;1.10;0.60;;;15.30;94.70;;;;;;5054815;28;20189;-70
2023/01/05 03:55:17;;;;;;;0.70;0.70;;;15.30;94.80;;;;;;5053688;28;20324;-69
2023/01/05 03:58:06;;;;;;;0.70;0.70;;;15.40;94.80;;;;;;5053059;28;20733;-71
2023/01/05 04:00:54;;;;;;;1.02;0.60;;;15.50;94.90;;;;;;5054103;28;20331;-68
2023/01/05 04:03:42;;;;;;;0.98;0.70;;;15.40;94.80;;;;;;5054247;28;20710;-71
2023/01/05 04:06:30;;;;;;;0.73;0.65;;;15.30;94.70;;;;;;5053770;28;20330;-68
2023/01/05 04:09:18;;;;;;;2.00;0.73;;;15.30;94.70;;;;;;5053076;28;20215;-69
2023/01/05 04:12:07;;;;;;;0.70;0.70;;;15.20;94.70;;;;;;5053848;28;20252;-70
2023/01/05 04:14:56;;;;;;;0.93;0.80;;;15.30;94.80;;;;;;5053904;28;20280;-71
2023/01/05 04:17:44;;;;;;;1.20;0.70;;;15.20;94.80;;;;;;5053925;28;20231;-69
2023/01/05 04:20:32;;;;;;;1.73;0.70;;;15.30;94.80;;;;;;5052746;28;20722;-70
2023/01/05 04:23:20;;;;;;;1.42;0.60;;;15.30;94.70;;;;;;5053722;28;20281;-71
2023/01/05 04:26:08;;;;;;;0.70;0.70;;;15.20;94.80;;;;;;5053077;28;20302;-71
2023/01/05 04:28:56;;;;;;;0.75;0.75;;;15.30;94.80;;;;;;5046965;28;20193;-70
2023/01/05 04:31:45;;;;;;;1.55;1.10;;;15.70;95.00;;;;;;5054096;28;20217;-71
2023/01/05 04:34:33;;;;;;;3.63;0.70;;;15.30;94.90;;;;;;5052937;28;20215;-70
2023/01/05 04:37:22;;;;;;;0.80;0.67;;;15.30;94.90;;;;;;5053481;28;20202;-71
2023/01/05 04:40:11;;;;;;;2.72;0.70;;;15.40;94.90;;;;;;5053384;28;20229;-71
2023/01/05 04:42:59;;;;;;;2.95;0.70;;;15.30;94.80;;;;;;5053918;28;20284;-72
2023/01/05 04:45:47;;;;;;;1.85;0.77;;;15.30;94.90;;;;;;5052381;28;20202;-70
2023/01/05 04:48:37;;;;;;;3.30;0.83;;;15.30;94.90;;;;;;5051378;28;20197;-71
2023/01/05 04:51:25;;;;;;;1.25;0.75;;;15.30;94.90;;;;;;5051910;28;20231;-68
2023/01/05 04:54:13;;;;;;;0.93;0.70;;;15.30;94.90;;;;;;5053185;28;20291;-72
2023/01/05 04:57:03;;;;;;;1.23;0.90;;;15.40;95.00;;;;;;5051667;28;20643;-71
2023/01/05 04:59:51;;;;;;;1.07;0.70;;;15.40;99.90;;;;;;5051653;28;20287;-71
2023/01/05 05:02:39;;;;;;;1.50;0.70;;;15.30;94.90;;;;;;5052858;28;20217;-68
2023/01/05 05:05:28;;;;;;;0.88;0.60;;;15.40;95.00;;;;;;5051791;28;20197;-69
2023/01/05 05:08:16;;;;;;;1.23;0.80;;;15.40;94.90;;;;;;5051205;28;20212;-68
2023/01/05 05:11:05;;;;;;;2.00;1.27;;;15.30;94.90;;;;;;5051356;28;20224;-71
2023/01/05 05:13:53;;;;;;;0.80;0.80;;;15.40;94.90;;;;;;5052700;28;20302;-72
2023/01/05 05:16:41;;;;;;;0.87;0.60;;;15.40;95.00;;;;;;5052882;28;20201;-70
2023/01/05 05:19:29;;;;;;;1.58;0.70;;;15.70;95.00;;;;;;5051405;28;20215;-71
2023/01/05 05:22:18;;;;;;;1.42;0.80;;;15.30;94.80;;;;;;5051039;28;20607;-69
2023/01/05 05:25:07;;;;;;;0.80;0.80;;;15.40;94.90;;;;;;5046985;28;20229;-71
2023/01/05 05:27:55;;;;;;;1.42;0.70;;;15.30;94.80;;;;;;5052527;28;20204;-71
2023/01/05 05:30:43;;;;;;;0.90;0.80;;;15.50;95.00;;;;;;5051801;28;20213;-72
2023/01/05 05:33:32;;;;;;;2.03;0.73;;;15.30;94.90;;;;;;5052912;28;20194;-71
2023/01/05 05:36:20;;;;;;;3.67;0.70;;;15.30;94.90;;;;;;5051580;28;20676;-71
2023/01/05 05:39:11;;;;;;;1.55;0.70;;;15.30;94.90;;;;;;5051871;28;20232;-70
2023/01/05 05:41:59;;;;;;;1.40;0.70;;;15.30;94.90;;;;;;5051783;28;20636;-68
2023/01/05 05:44:47;;;;;;;1.73;0.75;;;15.30;94.90;;;;;;5051500;28;20621;-72
2023/01/05 05:47:35;;;;;;;0.90;0.80;;;15.30;94.90;;;;;;5052047;28;20205;-69
2023/01/05 05:50:23;;;;;;;3.67;0.80;;;15.40;95.00;;;;;;5050556;28;20217;-69
2023/01/05 05:53:11;;;;;;;2.57;0.80;;;15.20;94.80;;;;;;5051934;28;20200;-71
2023/01/05 05:56:01;;;;;;;1.00;0.70;;;15.40;94.90;;;;;;5050827;28;20280;-68
2023/01/05 05:58:49;;;;;;;0.63;0.63;;;15.00;94.80;;;;;;5050454;28;20207;-71
2023/01/05 06:01:40;;;;;;;0.70;0.70;;;15.30;94.90;;;;;;5051619;28;20715;-68
2023/01/05 06:04:29;;;;;;;0.70;0.70;;;15.40;94.90;;;;;;5050915;28;20216;-69
2023/01/05 06:07:17;;;;;;;1.63;0.80;;;15.30;94.90;;;;;;5050246;28;20279;-71
2023/01/05 06:10:06;;;;;;;1.17;0.73;;;15.30;99.90;;;;;;5051055;28;20407;-70
2023/01/05 06:12:55;;;;;;;1.30;0.80;;;15.30;94.90;;;;;;5051737;28;20194;-71
2023/01/05 06:15:43;;;;;;;0.70;0.70;;;15.30;95.00;;;;;;5050629;28;20198;-71
2023/01/05 06:18:31;;;;;;;1.52;0.70;;;15.40;95.10;;;;;;5051858;28;20237;-70
2023/01/05 06:21:20;;;;;;;2.15;0.70;;;15.30;95.20;;;;;;5050356;28;20279;-69
2023/01/05 06:24:08;;;;;;;2.38;0.88;;;15.30;95.10;;;;;;5050541;28;20251;-71
2023/01/05 06:26:57;;;;;;;0.60;0.60;;;15.30;95.10;;;;;;5050547;28;20197;-71
2023/01/05 06:29:46;;;;;;;2.25;0.70;;;15.40;95.20;;;;;;5042785;28;20287;-71
2023/01/05 06:32:34;;;;;;;1.45;0.70;;;15.30;95.20;;;;;;5051618;28;20205;-70
2023/01/05 06:35:22;;;;;;;1.20;0.75;;;15.40;95.20;;;;;;5050599;28;20276;-68
2023/01/05 06:38:10;;;;;;;1.30;0.70;;;15.30;95.20;;;;;;5048251;28;20237;-67
2023/01/05 06:40:58;;;;;;;2.05;0.65;;;15.30;95.10;;;;;;5057395;28;20522;-60
2023/01/05 06:43:46;;;;;;;2.15;0.80;;;15.50;95.30;;;;;;5047575;28;20294;-62
2023/01/05 06:46:36;;;;;;;1.35;1.23;;;15.20;95.20;;;;;;5050452;28;20197;-62
2023/01/05 06:49:24;;;;;;;2.35;0.60;;;15.30;95.30;;;;;;5050710;28;20201;-65
2023/01/05 06:52:12;;;;;;;3.57;0.90;;;15.30;95.30;;;;;;5050511;28;20690;-61
2023/01/05 06:55:04;;;;;;;2.00;0.70;;;15.30;95.40;;;;;;5048837;28;20202;-67
2023/01/05 06:57:52;;;;;;;1.33;0.90;;;15.30;95.40;;;;;;5049495;28;20208;-62
2023/01/05 07:00:47;;;;;;;0.90;0.68;;;15.40;95.50;;;;;;5050443;28;20217;-62
2023/01/05 07:03:37;;;;;;;1.30;0.70;;;15.50;95.50;;;;;;5050920;28;20227;-61
2023/01/05 07:06:25;;;;;;;2.47;0.88;;;15.30;95.40;;;;;;5054055;28;20197;-64
2023/01/05 07:09:13;;;;;;;2.28;0.70;;;15.30;95.50;;;;;;5054052;28;20283;-62
2023/01/05 07:12:01;;;;;;;3.47;0.70;;;15.30;95.70;;;;;;5054279;28;20228;-64
2023/01/05 07:14:49;;;;;;;1.23;0.55;;;15.30;95.60;;;;;;5054715;28;20206;-63
2023/01/05 07:17:44;;;;;;;2.72;0.80;;;15.50;95.70;;;;;;5055105;28;20662;-66
2023/01/05 07:20:33;;;;;;;0.82;0.50;;;15.30;95.50;;;;;;5053817;28;20221;-67
2023/01/05 07:23:21;;;;;;;3.42;0.70;;;15.20;95.60;;;;;;5048194;28;20228;-63
2023/01/05 07:26:10;;;;;;;0.85;0.57;;;15.30;95.60;;;;;;5054225;28;20204;-61
2023/01/05 07:28:58;;;;;;;1.00;0.70;;;15.20;95.50;;;;;;5053476;28;20685;-61
2023/01/05 07:31:46;;;;;;;2.13;0.70;;;15.30;95.50;;;;;;5054475;28;20308;-63
2023/01/05 07:34:34;;;;;;;0.88;0.60;;;15.20;95.50;;;;;;5053934;28;20197;-66
2023/01/05 07:37:24;;;;;;;1.57;0.70;;;15.20;95.60;;;;;;5053761;28;20206;-64
2023/01/05 07:40:12;;;;;;;0.70;0.70;;;15.20;95.70;;;;;;5054755;28;20492;-64
2023/01/05 07:43:00;;;;;;;1.67;0.90;;;15.20;96.10;;;;;;5053798;28;20596;-67
2023/01/05 07:45:48;;;;;;;0.60;0.60;;;15.20;95.70;;;;;;5053606;28;20280;-66
2023/01/05 07:48:36;;;;;;;1.00;0.70;;;15.20;95.60;;;;;;5054305;28;20201;-67
2023/01/05 07:51:25;;;;;;;1.02;0.70;;;15.20;95.60;;;;;;5053438;28;20346;-65
2023/01/05 07:54:14;;;;;;;1.90;0.85;;;15.20;95.60;;;;;;5054035;28;20205;-66
2023/01/05 07:57:02;;;;;;;1.37;0.60;;;15.30;95.70;;;;;;5054858;28;20284;-62
2023/01/05 07:59:50;;;;;;;1.77;0.60;;;15.30;99.90;;;;;;5046354;28;20202;-63
2023/01/05 08:02:38;;;;;;;0.82;0.60;;;15.20;95.70;;;;;;5053296;28;20217;-64
2023/01/05 08:05:32;;;;;;;1.23;0.77;;;15.00;95.60;;;;;;5053760;28;20700;-63
2023/01/05 08:08:20;;;;;;;0.50;0.50;;;15.30;95.70;;;;;;5053365;28;20202;-66
2023/01/05 08:11:15;;;;;;;1.40;0.70;;;15.20;95.70;;;;;;5053022;28;20221;-67
2023/01/05 08:14:03;;;;;;;0.95;0.65;;;15.30;95.70;;;;;;5047491;28;20733;-65
2023/01/05 08:16:51;;;;;;;0.77;0.60;;;15.20;96.00;;;;;;5046081;28;20280;-61
2023/01/05 08:19:39;;;;;;;1.10;0.70;;;15.20;95.60;;;;;;5053456;28;20256;-64
2023/01/05 08:22:27;;;;;;;1.67;0.60;;;15.20;95.70;;;;;;5050955;28;20622;-64
2023/01/05 08:25:15;;;;;;;1.00;0.63;;;15.20;95.70;;;;;;5052983;28;20320;-62
2023/01/05 08:28:05;;;;;;;0.90;0.70;;;15.20;95.70;;;;;;5053565;28;20750;-65
2023/01/05 08:30:53;;;;;;;1.48;0.52;;;15.20;95.60;;;;;;5053675;28;20228;-65
2023/01/05 08:33:41;;;;;;;1.30;0.65;;;15.20;95.60;;;;;;5052732;28;20678;-66
2023/01/05 08:36:31;;;;;;;1.80;0.60;;;15.20;95.60;;;;;;5053132;28;20279;-63
2023/01/05 08:39:19;;;;;;;0.80;0.80;;;15.20;95.60;;;;;;5052524;28;20193;-67
2023/01/05 08:42:07;;;;;;;0.70;0.70;;;15.20;95.70;;;;;;5052738;28;20229;-62
2023/01/05 08:44:56;;;;;;;0.80;0.80;;;15.20;95.60;;;;;;5052632;28;20227;-63
2023/01/05 08:47:45;;;;;;;0.60;0.57;;;15.20;95.70;;;;;;5052723;28;20739;-63
2023/01/05 08:50:33;;;;;;;0.50;0.50;;;15.20;95.70;;;;;;5051666;28;20304;-62
2023/01/05 08:53:21;;;;;;;1.08;0.70;;;15.10;95.60;;;;;;5052040;28;20272;-64
2023/01/05 08:56:09;;;;;;;1.08;0.80;;;15.30;95.70;;;;;;5052564;28;20280;-63
2023/01/05 08:58:58;;;;;;;0.60;0.60;;;15.20;95.60;;;;;;5052886;28;20215;-66
2023/01/05 09:01:47;;;;;;;8.13;1.17;;;15.20;95.70;;;;;;5053013;28;20279;-65
2023/01/05 09:04:35;;;;;;;0.93;0.50;;;15.20;95.60;;;;;;5052723;28;20227;-66
2023/01/05 09:07:23;;;;;;;0.55;0.55;;;15.20;95.60;;;;;;5052304;28;20576;-63
2023/01/05 09:10:11;;;;;;;1.40;0.70;;;15.20;95.60;;;;;;5051913;28;20217;-61
2023/01/05 09:12:59;;;;;;;0.90;0.60;;;15.20;95.60;;;;;;5052054;28;20251;-65
2023/01/05 09:15:47;;;;;;;1.00;0.70;;;15.10;95.60;;;;;;5052690;28;20238;-62
2023/01/05 09:18:38;;;;;;;2.58;0.88;;;15.20;95.60;;;;;;5052017;28;20197;-65
2023/01/05 09:21:26;;;;;;;0.80;0.60;;;15.20;95.60;;;;;;5051411;28;20299;-62
2023/01/05 09:24:14;;;;;;;2.60;0.70;;;15.20;95.60;;;;;;5052430;28;20263;-64
2023/01/05 09:27:04;;;;;;;0.60;0.50;;;15.20;95.60;;;;;;5051357;28;20280;-64
2023/01/05 09:29:52;;;;;;;2.22;0.70;;;15.10;99.90;;;;;;5051888;28;20250;-62
2023/01/05 09:32:40;;;;;;;1.00;0.80;;;15.20;95.60;;;;;;5052340;28;20235;-65
2023/01/05 09:35:29;;;;;;;0.82;0.60;;;15.20;95.60;;;;;;5053773;28;20698;-68
2023/01/05 09:38:17;;;;;;;1.33;0.70;;;15.10;95.50;;;;;;5052962;28;20323;-62
2023/01/05 09:41:12;;;;;;;1.65;0.60;;;15.20;95.60;;;;;;5052663;28;20651;-64
2023/01/05 09:44:05;;;;;;;0.77;0.57;;;15.20;95.60;;;;;;5052335;28;20221;-62
2023/01/05 09:46:57;;;;;;;1.07;0.70;;;15.20;95.20;;;;;;5053088;28;20283;-62
2023/01/05 09:49:47;;;;;;;3.53;0.77;;;15.20;95.60;;;;;;5051420;28;20197;-64
2023/01/05 09:52:37;;;;;;;0.60;0.50;;;15.30;95.30;;;;;;5052094;28;20335;-64
2023/01/05 09:55:30;;;;;;;0.50;0.50;;;15.20;95.40;;;;;;5052658;28;20204;-63
2023/01/05 09:58:23;;;;;;;0.97;0.60;;;15.20;95.40;;;;;;5051911;28;20571;-63
2023/01/05 10:01:19;;;;;;;0.95;0.50;;;15.20;95.30;;;;;;5051977;28;20630;-64
2023/01/05 10:04:13;;;;;;;1.10;0.90;;;15.20;95.30;;;;;;5052354;28;20713;-62
2023/01/05 10:07:05;;;;;;;3.57;0.70;;;15.10;95.30;;;;;;5052125;28;20213;-66
2023/01/05 10:09:57;;;;;;;1.67;1.00;;;15.20;99.90;;;;;;5050859;28;20280;-62
2023/01/05 10:13:05;;;;;;;1.98;0.60;;;15.20;95.20;;;;;;5043025;28;20666;-64
2023/01/05 10:15:54;;;;;;;0.80;0.70;;;15.30;95.00;;;;;;5052566;28;20594;-63
2023/01/05 10:18:43;;;;;;;0.60;0.60;;;15.20;95.10;;;;;;5051696;28;20678;-61
2023/01/05 10:21:41;;;;;;;0.60;0.60;;;15.10;95.00;;;;;;5051313;28;20295;-65
2023/01/05 10:24:40;;;;;;;1.33;0.50;;;15.20;95.10;;;;;;5051876;28;20221;-61
2023/01/05 10:27:36;;;;;;;0.60;0.60;;;15.20;95.10;;;;;;5051739;28;20205;-64
2023/01/05 10:30:26;;;;;;;1.45;0.77;;;15.20;95.10;;;;;;5050480;28;20304;-63
2023/01/05 10:33:20;;;;;;;1.08;0.60;;;15.20;95.00;;;;;;5052178;28;20697;-62
2023/01/05 10:36:38;;;;;;;1.27;0.90;;;15.20;95.00;;;;;;5051523;28;20207;-62
2023/01/05 10:40:08;;;;;;;2.65;0.80;;;15.20;95.00;;;;;;5055331;28;20197;-63
2023/01/05 10:43:20;;;;;;;1.30;0.68;;;15.20;95.00;;;;;;5054778;28;20247;-62
2023/01/05 10:46:11;;;;;;;0.70;0.70;;;15.20;94.90;;;;;;5055589;28;20306;-62
2023/01/05 10:49:24;;;;;;;0.77;0.70;;;15.20;95.20;;;;;;5055992;28;20205;-65
2023/01/05 10:52:14;;;;;;;1.13;0.60;;;15.30;95.40;;;;;;5055932;28;20286;-62
2023/01/05 10:55:11;;;;;;;1.25;0.70;;;15.30;95.50;;;;;;5054675;28;20193;-61
2023/01/05 10:58:00;;;;;;;1.67;0.70;;;15.20;95.50;;;;;;5055885;28;20198;-61
2023/01/05 11:00:49;;;;;;;1.17;0.60;;;15.20;95.50;;;;;;5055606;28;20321;-65
2023/01/05 11:03:42;;;;;;;0.60;0.60;;;15.10;95.50;;;;;;5055459;28;20276;-64
2023/01/05 11:06:51;;;;;;;1.57;0.70;;;15.20;95.60;;;;;;5055702;28;20583;-61
2023/01/05 11:09:41;;;;;;;1.47;0.70;;;15.20;95.80;;;;;;5054763;28;20304;-62
2023/01/05 11:12:29;;;;;;;0.93;0.70;;;15.10;95.60;;;;;;5055124;28;20281;-66
2023/01/05 11:15:18;;;;;;;2.30;0.80;;;15.20;95.50;;;;;;5054985;28;20681;-62
2023/01/05 11:18:07;;;;;;;0.60;0.60;;;15.30;95.60;;;;;;5054864;28;20205;-61
2023/01/05 11:21:10;;;;;;;0.90;0.50;;;15.20;95.50;;;;;;5055086;28;20305;-63
2023/01/05 11:23:59;;;;;;;1.45;0.73;;;15.20;95.40;;;;;;5055319;28;20199;-63
2023/01/05 11:26:49;;;;;;;0.73;0.60;;;15.30;95.50;;;;;;5055204;28;20595;-62
2023/01/05 11:29:37;;;;;;;0.97;0.60;;;16.40;95.90;;;;;;5055028;28;20801;-64
2023/01/05 11:32:27;;;;;;;1.80;0.70;;;15.30;95.50;;;;;;5054418;28;20201;-65
2023/01/05 11:35:21;;;;;;;1.50;0.60;;;15.20;95.40;;;;;;5054683;28;20280;-64
2023/01/05 11:38:22;;;;;;;1.47;0.57;;;15.20;95.40;;;;;;5054048;28;20202;-66
2023/01/05 11:41:13;;;;;;;0.75;0.65;;;15.20;95.30;;;;;;5052818;28;20799;-61
2023/01/05 11:44:03;;;;;;;0.93;0.80;;;15.20;95.30;;;;;;5054482;28;20213;-62
2023/01/05 11:46:51;;;;;;;0.60;0.60;;;15.10;95.20;;;;;;5053916;28;20211;-63
2023/01/05 11:49:41;;;;;;;1.90;0.95;;;15.40;95.50;;;;;;5052442;28;20205;-65
2023/01/05 11:52:34;;;;;;;0.80;0.80;;;15.10;95.00;;;;;;5054228;28;20193;-64
2023/01/05 11:55:29;;;;;;;1.73;0.60;;;15.20;95.20;;;;;;5054307;28;20583;-63
2023/01/05 11:58:24;;;;;;;0.70;0.70;;;15.20;95.00;;;;;;5054806;28;20704;-66
2023/01/05 12:01:41;;;;;;;1.20;0.70;;;15.20;95.20;;;;;;5053829;28;20235;-63
2023/01/05 12:04:54;;;;;;;3.63;0.90;;;15.20;94.90;;;;;;5053445;28;20217;-64
2023/01/05 12:07:46;;;;;;;3.20;0.88;;;15.20;95.00;;;;;;5054008;28;20197;-62
2023/01/05 12:10:58;;;;;;;2.40;0.70;;;15.20;95.10;;;;;;5054206;28;20225;-64
2023/01/05 12:14:02;;;;;;;2.55;0.70;;;15.10;95.00;;;;;;5045788;28;20331;-64
2023/01/05 12:16:54;;;;;;;2.47;0.80;;;15.20;95.00;;;;;;5054272;28;20204;-62
2023/01/05 12:19:54;;;;;;;1.13;0.77;;;15.20;95.00;;;;;;5053653;28;20242;-65
2023/01/05 12:23:06;;;;;;;0.73;0.70;;;15.20;95.10;;;;;;5054199;28;20201;-62
2023/01/05 12:26:03;;;;;;;0.95;0.52;;;15.20;95.10;;;;;;5054492;28;20249;-65
2023/01/05 12:29:03;;;;;;;1.90;0.70;;;15.20;95.20;;;;;;5053571;28;20208;-66
2023/01/05 12:32:27;;;;;;;0.83;0.70;;;15.10;95.00;;;;;;5053487;28;20220;-63
2023/01/05 12:35:53;;;;;;;0.50;0.50;;;15.20;95.20;;;;;;5053425;28;20197;-62
2023/01/05 12:38:52;;;;;;;2.35;0.50;;;15.10;95.10;;;;;;5053423;28;20645;-67
2023/01/05 12:41:54;;;;;;;1.15;0.82;;;15.30;95.10;;;;;;5053820;28;20265;-63
2023/01/05 12:45:09;;;;;;;1.05;0.65;;;15.20;95.20;;;;;;5034067;28;20193;-61
2023/01/05 12:48:00;;;;;;;3.13;0.95;;;15.20;95.00;;;;;;5033697;28;20275;-63
2023/01/05 12:50:54;;;;;;;2.30;0.80;;;15.20;95.10;;;;;;5040709;28;20225;-65
2023/01/05 12:53:50;;;;;;;0.80;0.60;;;15.20;95.20;;;;;;5053094;28;20208;-64
2023/01/05 12:56:43;;;;;;;0.63;0.63;;;15.90;95.20;;;;;;5053673;28;20276;-64
2023/01/05 12:59:38;;;;;;;0.60;0.60;;;15.10;94.70;;;;;;5052860;28;20197;-63
2023/01/05 13:02:34;;;;;;;1.70;0.70;;;15.10;94.70;;;;;;5051694;28;20622;-65
2023/01/05 13:05:27;;;;;;;0.80;0.80;;;15.10;94.60;;;;;;5052921;28;20213;-65
2023/01/05 13:08:20;;;;;;;2.08;0.70;;;15.10;94.80;;;;;;5052803;28;20295;-62
2023/01/05 13:11:17;;;;;;;4.20;1.27;;;15.10;94.80;;;;;;5053088;28;20302;-62
2023/01/05 13:14:10;;;;;;;0.90;0.70;;;15.20;94.80;;;;;;5047449;28;20284;-62
2023/01/05 13:17:03;;;;;;;1.40;0.73;;;15.30;94.90;;;;;;5046123;28;20690;-66
2023/01/05 13:19:59;;;;;;;2.60;0.63;;;15.30;99.90;;;;;;5045319;28;20205;-62
2023/01/05 13:22:48;;;;;;;0.60;0.60;;;15.10;94.40;;;;;;5033172;28;20198;-62
2023/01/05 13:25:46;;;;;;;0.60;0.60;;;15.10;94.60;;;;;;5033095;28;20310;-62
2023/01/05 13:28:35;;;;;;;0.93;0.63;;;15.30;94.80;;;;;;5033090;28;20209;-63
2023/01/05 13:31:49;;;;;;;2.30;0.70;;;15.10;94.70;;;;;;5032926;28;20272;-64
2023/01/05 13:34:58;;;;;;;0.80;0.63;;;15.20;95.00;;;;;;5032020;28;20202;-64
2023/01/05 13:38:10;;;;;;;0.70;0.63;;;15.20;94.80;;;;;;5032286;28;20279;-64
2023/01/05 13:41:21;;;;;;;0.90;0.70;;;15.10;94.90;;;;;;5031939;28;20225;-62
2023/01/05 13:44:42;;;;;;;2.15;0.70;;;15.20;95.00;;;;;;5031516;28;20355;-65
2023/01/05 13:47:53;;;;;;;1.83;0.70;;;15.10;94.90;;;;;;5031783;28;20733;-64
2023/01/05 13:51:02;;;;;;;0.98;0.60;;;15.10;94.90;;;;;;5031337;28;20232;-61
2023/01/05 13:53:52;;;;;;;1.35;0.60;;;15.20;95.00;;;;;;5024740;28;20205;-64
2023/01/05 13:56:40;;;;;;;1.80;0.68;;;15.20;94.90;;;;;;5032037;28;20220;-65
2023/01/05 13:59:33;;;;;;;1.50;1.15;;;15.30;95.00;;;;;;5031253;28;20229;-61
2023/01/05 14:02:37;;;;;;;0.82;0.70;;;15.10;94.90;;;;;;5032483;28;20573;-63
2023/01/05 14:05:30;;;;;;;0.90;0.70;;;15.10;94.90;;;;;;5031298;28;20579;-64
2023/01/05 14:08:22;;;;;;;0.87;0.70;;;15.20;94.90;;;;;;5031667;28;20609;-64
2023/01/05 14:11:14;;;;;;;2.13;0.80;;;15.10;95.00;;;;;;5030853;28;20297;-66
2023/01/05 14:14:07;;;;;;;3.50;0.73;;;15.10;95.00;;;;;;5032016;28;20264;-65
2023/01/05 14:16:56;;;;;;;1.47;0.60;;;15.10;95.00;;;;;;5031273;28;20301;-63
2023/01/05 14:19:52;;;;;;;1.50;0.80;;;15.10;95.00;;;;;;5041657;28;20219;-63
2023/01/05 14:22:41;;;;;;;0.90;0.70;;;15.20;94.90;;;;;;5050943;28;20625;-62
2023/01/05 14:25:49;;;;;;;2.25;0.80;;;15.10;94.90;;;;;;5052361;28;20774;-65
2023/01/05 14:28:47;;;;;;;1.20;0.80;;;15.10;95.00;;;;;;5053838;28;20255;-66
2023/01/05 14:31:38;;;;;;;1.30;0.63;;;15.10;95.00;;;;;;5053354;28;20713;-64
2023/01/05 14:34:28;;;;;;;1.00;0.80;;;15.10;94.90;;;;;;5050902;28;20244;-63
2023/01/05 14:37:22;;;;;;;0.70;0.70;;;15.10;94.80;;;;;;5051269;28;20241;-64
2023/01/05 14:40:20;;;;;;;1.03;0.80;;;15.10;94.70;;;;;;5051392;28;20229;-63
2023/01/05 14:43:23;;;;;;;0.80;0.60;;;15.10;94.70;;;;;;5052054;28;20292;-64
2023/01/05 14:46:15;;;;;;;1.50;0.80;;;15.30;94.90;;;;;;5052119;28;20221;-63
2023/01/05 14:49:06;;;;;;;1.73;0.90;;;15.10;94.80;;;;;;5052073;28;20427;-62
2023/01/05 14:51:58;;;;;;;0.90;0.70;;;15.00;94.80;;;;;;5051202;28;20227;-64
2023/01/05 14:55:09;;;;;;;1.10;0.70;;;15.10;94.90;;;;;;5052014;28;20204;-63
2023/01/05 14:58:15;;;;;;;2.55;0.80;;;15.10;94.70;;;;;;5050849;28;20202;-63
2023/01/05 15:01:18;;;;;;;1.35;0.75;;;15.10;94.90;;;;;;5048627;28;20217;-62
2023/01/05 15:04:12;;;;;;;1.05;0.60;;;15.10;95.10;;;;;;5051805;28;20201;-61
2023/01/05 15:07:18;;;;;;;0.60;0.60;;;15.10;95.20;;;;;;5051721;28;20318;-61
2023/01/05 15:10:20;;;;;;;0.90;0.70;;;15.30;99.90;;;;;;5048128;28;20201;-62
2023/01/05 15:13:39;;;;;;;4.32;0.70;;;15.20;95.40;;;;;;5051183;28;20224;-62
2023/01/05 15:16:36;;;;;;;1.33;0.63;;;15.20;95.30;;;;;;5051462;28;20331;-65
2023/01/05 15:19:43;;;;;;;0.70;0.70;;;15.10;95.30;;;;;;5051432;28;20197;-62
2023/01/05 15:22:48;;;;;;;1.40;0.90;;;15.10;95.20;;;;;;5050702;28;20205;-63
2023/01/05 15:25:59;;;;;;;0.90;0.80;;;15.30;95.00;;;;;;5052440;28;20284;-61
2023/01/05 15:29:46;;;;;;;3.13;0.80;;;15.20;94.90;;;;;;5055372;28;20287;-65
2023/01/05 15:32:42;;;;;;;2.03;0.90;;;15.20;94.60;;;;;;5053001;28;20201;-61